Pagrindinis puslapis
METAR-TAF:

METAR-TAF

Oro uostai :

Lježas, Belgija

platuma: 50-39N, ilguma: 005-27E, Aukštis: 186 m

Dabartinis oras

Ataskaita buvo paskelbta 30 minutes, ne 17:20 UTC
Vėjas 8 kt iš Šiaurės Rytų
Temperatūra 7°C
Drėgmė 39%
Slėgis 1027 hPa
Matomumas 10 km arba daugiau
nėra debesų žemiau 1500 m ir nėra kamuolinių lietaus debesų

METAR: EBLG 311720Z 04008KT CAVOK 07/M06 Q1027 NOSIG

Laikas: 19:50 (17:50 UTC)

Prognozė

Ataskaita buvo paskelbta 45 minutes, ne 17:05 UTC
Prognozė galioja nuo 31 metu 18 UTC su 01 metu 24 UTC
Vėjas 8 kt iš Šiaurės Rytų
Matomumas 10 km arba daugiau
Mažai debesys ne aukštis 4000 ft

TAF: EBLG 311705Z 3118/0124 05008KT 9999 FEW040

Orai ataskaitas ir orų prognozės (METAR, TAF).

turimą stotys yra geltonos ir raudonos taškus žemėlapyje.

Perkelti pele per norėdami pamatyti stoties vardą.

Tada spustelėkite, norėdami matyti oro stebėjimo ir prognozės.

Norėdami pakeisti žemėlapį: spustelėkite ant žalios mygtukų su juodo kryžiaus žemyn,; žalią mygtuką su brūkšneliu, jei norite nutolinti; arba žalių rodyklių gretimoms žemėlapius.


METAR-TAF: